Terminal Aerodrome Forecast
Issued by NWS

Home | Current Version | Previous Version | Text Only | Print | Product List | Glossary On
Versions: 1 2 3 4 5 6 7 8 9 10 11 12 13 14 15 16 17 18 19 20 21 22 23 24 25 26 27 28 29 30 31 32 33 34 35 36 37 38 39 40 41 42
000
FTUS41 KRNK 101725
TAFLWB
TAF
KLWB 101725Z 1018/1118 23004KT P6SM VCSH SCT040 SCT050 BKN100
     FM102300 VRB02KT P6SM SCT040 BKN100
     FM110600 00000KT 2SM BR SCT250
     FM110900 00000KT 1/4SM FG BKN001
     FM111400 02003KT P6SM SCT120=

USA.gov is the U.S. government's official web portal to all federal, state and local government web resources and services.